Terminal Aerodrome Forecast
Issued by NWS

Home | Current Version | Previous Version | Text Only | Print | Product List | Glossary On
Versions: 1 2 3 4 5 6 7 8 9 10 11 12 13 14 15 16 17 18 19 20 21 22 23 24 25 26 27 28 29 30
000
FTUS45 KGJT 010540
TAFCNY
TAF
KCNY 010540Z 0106/0206 16010KT P6SM SCT090 BKN150
     FM010800 VRB05KT P6SM SCT200
     FM012100 35008G15KT P6SM FEW150
     FM020200 02006KT P6SM FEW100 SCT200=

USA.gov is the U.S. government's official web portal to all federal, state and local government web resources and services.